Nogal, New Mexico
Current Conditions -  °F | °C
As of 7:15 AM on Monday 22 Dec 2014 (Local Time) from KSRR Reporting Station
Clear Clear  
Wind Chill: 35°   Ceiling: Unl
Heat Index: 45°   Visibility: 10mi
Dew Point: 27°   Wind: 26mph
Humidity: 49%   Direction: 300°WNW
Pressure: 29.88"   Gusts: 37mph
Location:  33.56°N, 105.71°W
Report Text: KSRR 221415Z AUTO 30023G32KT 10SM CLR 07/M03 A2988 RMK AO2
Loading
Personal Weather Stations






























Interactive Weather Map New forecast layout! Learn more

10-Day Weather Forecast

Advertisements
Track Severe Weather on mobile